| Data | Piattaforma CNR Liv.Idrom. medio 1m | Piattaforma CNR D.Vento med. 10m | Piattaforma CNR V.Vento med.10m | Piattaforma CNR V.Vento max | Piattaforma CNR Onda: Alt. sign. | Piattaforma CNR Onda: Alt. max | Piattaforma CNR Pressione | Piattaforma CNR Temperatura | Piattaforma CNR Temp. Acqua | Piattaforma CNR Umidita' | Piattaforma CNR Radiazione solare | Piattaforma CNR Pioggia 5m |
|---|---|---|---|---|---|---|---|---|---|---|---|---|
| 2026-05-05 13:50:00 | 0.46 | 122 | 5.9 | 6.5 | 0.57 | 0.98 | 1012.9 | 16.3 | 86 | 131 | 0.0 | |
| 2026-05-05 13:55:00 | 0.46 | 127 | 5.8 | 6.7 | 0.57 | 0.98 | 1012.9 | 16.4 | 86 | 116 | 0.0 | |
| 2026-05-05 14:00:00 | 0.47 | 128 | 5.9 | 6.7 | 0.57 | 0.98 | 1012.8 | 16.3 | 85 | 198 | 0.0 | |
| 2026-05-05 14:05:00 | 0.47 | 129 | 5.9 | 6.8 | 0.57 | 0.98 | 1012.8 | 16.3 | 85 | 206 | 0.0 | |
| 2026-05-05 14:10:00 | 0.46 | 128 | 6.2 | 6.7 | 0.57 | 0.98 | 1012.8 | 16.3 | 85 | 199 | 0.0 | |
| 2026-05-05 14:15:00 | 0.46 | 129 | 6.5 | 7.7 | 0.57 | 1.04 | 1012.7 | 16.4 | 85 | 328 | 0.0 | |
| 2026-05-05 14:20:00 | 0.47 | 128 | 6.7 | 8.0 | 0.57 | 1.04 | 1012.6 | 16.3 | 85 | 284 | 0.0 | |
| 2026-05-05 14:25:00 | 0.48 | 127 | 6.5 | 7.6 | 0.57 | 1.04 | 1012.6 | 16.5 | 86 | 241 | 0.0 | |
| 2026-05-05 14:30:00 | 0.47 | 124 | 6.3 | 7.1 | 0.55 | 0.87 | 1012.6 | 16.4 | 87 | 186 | 0.0 | |
| 2026-05-05 14:35:00 | 0.46 | 128 | 6.8 | 8.0 | 0.55 | 0.87 | 1012.5 | 16.3 | 86 | 234 | 0.0 | |
| 2026-05-05 14:40:00 | 0.46 | 127 | 7.0 | 7.5 | 0.55 | 0.87 | 1012.5 | 16.3 | 87 | 420 | 0.0 | |
| 2026-05-05 14:45:00 | 0.46 | 127 | 6.9 | 7.5 | 0.53 | 0.92 | 1012.4 | 16.3 | 87 | 310 | 0.0 | |
| 2026-05-05 14:50:00 | 0.46 | 126 | 6.9 | 7.5 | 0.53 | 0.92 | 1012.4 | 16.2 | 86 | 275 | 0.0 | |
| 2026-05-05 14:55:00 | 0.46 | 123 | 6.9 | 7.6 | 0.53 | 0.92 | 1012.3 | 16.2 | 86 | 309 | 0.0 | |
| 2026-05-05 15:00:00 | 0.47 | 125 | 6.8 | 7.3 | 0.58 | 1.01 | 1012.3 | 16.4 | 86 | 363 | 0.0 | |
| 2026-05-05 15:05:00 | 0.47 | 124 | 6.6 | 7.3 | 0.58 | 1.01 | 1012.2 | 16.5 | 86 | 314 | 0.0 | |
| 2026-05-05 15:10:00 | 0.47 | 126 | 6.8 | 8.0 | 0.58 | 1.01 | 1012.2 | 16.4 | 85 | 276 | 0.0 | |
| 2026-05-05 15:15:00 | 0.46 | 125 | 6.8 | 7.4 | 0.59 | 1.19 | 1012.1 | 16.5 | 85 | 438 | 0.0 | |
| 2026-05-05 15:20:00 | 0.47 | 125 | 6.8 | 8.0 | 0.59 | 1.19 | 1012.1 | 16.6 | 85 | 324 | 0.0 | |
| 2026-05-05 15:25:00 | 0.47 | 123 | 7.2 | 8.2 | 0.59 | 1.19 | 1012.2 | 16.4 | 84 | 245 | 0.0 | |
| 2026-05-05 15:30:00 | 0.47 | 125 | 7.1 | 7.7 | 0.58 | 1.06 | 1012.2 | 16.4 | 84 | 184 | 0.0 | |
| 2026-05-05 15:35:00 | 0.47 | 127 | 6.9 | 7.8 | 0.58 | 1.06 | 1012.2 | 16.5 | 84 | 205 | 0.0 | |
| 2026-05-05 15:40:00 | 0.48 | 125 | 7.0 | 7.7 | 0.58 | 1.06 | 1012.2 | 16.4 | 84 | 149 | 0.0 | |
| 2026-05-05 15:45:00 | 0.48 | 125 | 6.9 | 7.7 | 0.60 | 1.06 | 1012.1 | 16.5 | 84 | 132 | 0.0 | |
| 2026-05-05 15:50:00 | 0.48 | 123 | 6.7 | 7.2 | 0.60 | 1.06 | 1012.1 | 16.4 | 85 | 127 | 0.0 | |
| 2026-05-05 15:55:00 | 0.47 | 126 | 6.5 | 7.4 | 0.60 | 1.06 | 1012.1 | 16.6 | 85 | 119 | 0.0 | |
| 2026-05-05 16:00:00 | 0.48 | 122 | 6.4 | 7.2 | 0.59 | 0.93 | 1012.1 | 16.4 | 86 | 103 | 0.0 | |
| 2026-05-05 16:05:00 | 0.49 | 121 | 6.3 | 6.7 | 0.59 | 0.93 | 1012.1 | 16.5 | 86 | 96 | 0.0 | |
| 2026-05-05 16:10:00 | 0.49 | 121 | 6.3 | 7.3 | 0.59 | 0.93 | 1012.1 | 16.5 | 84 | 87 | 0.0 | |
| 2026-05-05 16:15:00 | 0.49 | 118 | 6.3 | 6.8 | 0.62 | 1.19 | 1012.1 | 16.5 | 85 | 86 | 0.0 | |
| 2026-05-05 16:20:00 | 0.48 | 115 | 6.2 | 7.2 | 0.62 | 1.19 | 1012.1 | 16.5 | 85 | 83 | 0.0 | |
| 2026-05-05 16:25:00 | 0.48 | 114 | 6.2 | 7.1 | 0.62 | 1.19 | 1012.0 | 16.6 | 85 | 206 | 0.0 | |
| 2026-05-05 16:30:00 | 0.48 | 116 | 6.1 | 7.0 | 0.61 | 0.94 | 1012.0 | 16.7 | 85 | 328 | 0.0 | |
| 2026-05-05 16:35:00 | 0.48 | 107 | 6.3 | 7.2 | 0.61 | 0.94 | 1011.8 | 16.6 | 85 | 459 | 0.0 | |
| 2026-05-05 16:40:00 | 0.49 | 103 | 6.8 | 7.8 | 0.61 | 0.94 | 1011.8 | 16.6 | 85 | 377 | 0.0 | |
| 2026-05-05 16:45:00 | 0.49 | 100 | 6.7 | 6.9 | 0.61 | 0.94 | 1011.8 | 16.6 | 85 | 118 | 0.0 | |
| 2026-05-05 16:50:00 | 0.48 | 108 | 6.1 | 6.6 | 0.61 | 0.94 | 1011.9 | 16.5 | 86 | 267 | 0.0 | |
| 2026-05-05 16:55:00 | 0.49 | 112 | 5.9 | 7.1 | 0.61 | 0.94 | 1011.8 | 16.6 | 85 | 138 | 0.0 | |
| 2026-05-05 17:00:00 | 0.49 | 108 | 6.0 | 6.5 | 0.60 | 0.92 | 1011.8 | 16.7 | 86 | 105 | 0.0 | |
| 2026-05-05 17:05:00 | 0.49 | 108 | 6.3 | 7.2 | 0.60 | 0.92 | 1011.7 | 16.8 | 86 | 106 | 0.0 | |
| 2026-05-05 17:10:00 | 0.50 | 109 | 6.4 | 6.8 | 0.60 | 0.92 | 1011.7 | 16.7 | 86 | 85 | 0.0 | |
| 2026-05-05 17:15:00 | 0.50 | 114 | 6.2 | 7.1 | 0.56 | 0.98 | 1011.7 | 16.7 | 86 | 84 | 0.0 | |
| 2026-05-05 17:20:00 | 0.51 | 115 | 6.0 | 6.6 | 0.56 | 0.98 | 1011.7 | 16.7 | 87 | 78 | 0.0 | |
| 2026-05-05 17:25:00 | 0.50 | 123 | 5.8 | 6.5 | 0.56 | 0.98 | 1011.6 | 16.8 | 87 | 61 | 0.0 | |
| 2026-05-05 17:30:00 | 0.50 | 127 | 5.6 | 6.1 | 0.59 | 0.89 | 1011.6 | 16.7 | 87 | 71 | 0.0 | |
| 2026-05-05 17:35:00 | 0.52 | 121 | 5.4 | 6.1 | 0.59 | 0.89 | 1011.6 | 16.7 | 87 | 68 | 0.0 | |
| 2026-05-05 17:40:00 | 0.52 | 118 | 5.2 | 5.7 | 0.59 | 0.89 | 1011.6 | 16.7 | 87 | 68 | 0.0 | |
| 2026-05-05 17:45:00 | 0.51 | 116 | 5.2 | 6.2 | 0.64 | 1.05 | 1011.6 | 16.7 | 87 | 59 | 0.0 | |
| 2026-05-05 17:50:00 | 0.53 | 120 | 5.4 | 6.1 | 0.64 | 1.05 | 1011.6 | 16.8 | 87 | 53 | 0.0 | |
| 2026-05-05 17:55:00 | 0.53 | 124 | 5.4 | 6.2 | 0.64 | 1.05 | 1011.6 | 17.0 | 87 | 38 | 0.0 | |
| 2026-05-05 18:00:00 | 0.53 | 123 | 5.2 | 5.5 | 0.62 | 1.11 | 1011.6 | 16.8 | 87 | 27 | 0.0 | |
| 2026-05-05 18:05:00 | 0.53 | 121 | 4.8 | 5.2 | 0.62 | 1.11 | 1011.6 | 16.9 | 87 | 59 | 0.0 | |
| 2026-05-05 18:10:00 | 0.55 | 117 | 4.8 | 5.7 | 0.62 | 1.11 | 1011.4 | 17.0 | 87 | 34 | 0.0 | |
| 2026-05-05 18:15:00 | 0.56 | 109 | 5.2 | 5.9 | 0.64 | 0.94 | 1011.4 | 16.9 | 88 | 22 | 0.0 | |
| 2026-05-05 18:20:00 | 0.55 | 110 | 5.5 | 6.3 | 0.64 | 0.94 | 1011.3 | 17.0 | 88 | 16 | 0.0 | |
| 2026-05-05 18:25:00 | 0.56 | 115 | 5.7 | 6.3 | 0.64 | 0.94 | 1011.4 | 17.0 | 88 | 17 | 0.0 | |
| 2026-05-05 18:30:00 | 0.57 | 117 | 5.6 | 6.2 | 0.64 | 1.01 | 1011.4 | 16.9 | 88 | 15 | 0.0 | |
| 2026-05-05 18:35:00 | 0.58 | 116 | 5.3 | 5.7 | 0.64 | 1.01 | 1011.4 | 17.0 | 88 | 16 | 0.0 | |
| 2026-05-05 18:40:00 | 0.58 | 121 | 5.3 | 6.5 | 0.64 | 1.01 | 1011.4 | 17.0 | 88 | 13 | 0.0 | |
| 2026-05-05 18:45:00 | 0.60 | 128 | 5.6 | 6.6 | 0.65 | 1.08 | 1011.3 | 17.0 | 88 | 16 | 0.0 | |
| 2026-05-05 18:50:00 | 0.60 | 127 | 5.8 | 6.4 | 0.65 | 1.08 | 1011.4 | 17.1 | 87 | 14 | 0.0 | |
| 2026-05-05 18:55:00 | 0.61 | 128 | 6.0 | 7.1 | 0.65 | 1.08 | 1011.3 | 17.1 | 87 | 13 | 0.0 | |
| 2026-05-05 19:00:00 | 0.61 | 131 | 6.2 | 6.8 | 0.65 | 1.02 | 1011.4 | 17.2 | 87 | 10 | 0.0 | |
| 2026-05-05 19:05:00 | 0.62 | 132 | 6.1 | 6.6 | 0.65 | 1.02 | 1011.4 | 17.1 | 87 | 8 | 0.0 | |
| 2026-05-05 19:10:00 | 0.61 | 132 | 6.1 | 6.8 | 0.65 | 1.02 | 1011.4 | 17.3 | 87 | 5 | 0.0 | |
| 2026-05-05 19:15:00 | 0.62 | 140 | 6.0 | 6.9 | 0.68 | 1.14 | 1011.5 | 17.3 | 87 | 3 | 0.0 | |
| 2026-05-05 19:20:00 | 0.63 | 141 | 5.8 | 6.7 | 0.68 | 1.14 | 1011.5 | 17.3 | 87 | 2 | 0.0 | |
| 2026-05-05 19:25:00 | 0.64 | 138 | 5.7 | 6.5 | 0.68 | 1.14 | 1011.5 | 17.2 | 87 | 1 | 0.0 | |
| 2026-05-05 19:30:00 | 0.65 | 130 | 5.6 | 6.1 | 0.70 | 1.18 | 1011.5 | 17.1 | 88 | 1 | 0.0 | |
| 2026-05-05 19:35:00 | 0.65 | 134 | 5.6 | 6.5 | 0.70 | 1.18 | 1011.5 | 17.2 | 89 | 0 | 0.0 | |
| 2026-05-05 19:40:00 | 0.65 | 135 | 5.6 | 6.4 | 0.70 | 1.18 | 1011.4 | 17.2 | 89 | 0 | 0.0 | |
| 2026-05-05 19:45:00 | 0.66 | 142 | 5.9 | 7.3 | 0.84 | 1.36 | 1011.4 | 17.3 | 89 | 0 | 0.0 | |
| 2026-05-05 19:50:00 | 0.67 | 138 | 6.3 | 7.5 | 0.84 | 1.36 | 1011.4 | 17.2 | 89 | 0 | 0.0 | |
| 2026-05-05 19:55:00 | 0.68 | 140 | 6.6 | 7.7 | 0.84 | 1.36 | 1011.4 | 17.3 | 89 | 0 | 0.0 | |
| 2026-05-05 20:00:00 | 0.69 | 141 | 7.2 | 8.7 | 0.83 | 1.34 | 1011.4 | 17.3 | 89 | 0 | 0.0 | |
| 2026-05-05 20:05:00 | 0.70 | 143 | 7.3 | 8.1 | 0.83 | 1.34 | 1011.5 | 17.3 | 89 | 0 | 0.0 | |
| 2026-05-05 20:10:00 | 0.69 | 142 | 7.1 | 7.7 | 0.83 | 1.34 | 1011.5 | 17.3 | 89 | 0 | 0.0 | |
| 2026-05-05 20:15:00 | 0.69 | 144 | 7.1 | 8.0 | 0.84 | 1.54 | 1011.6 | 17.4 | 89 | 0 | 0.0 | |
| 2026-05-05 20:20:00 | 0.70 | 146 | 6.9 | 7.8 | 0.84 | 1.54 | 1011.5 | 17.3 | 89 | 0 | 0.0 | |
| 2026-05-05 20:25:00 | 0.71 | 146 | 7.0 | 8.4 | 0.84 | 1.54 | 1011.5 | 17.3 | 88 | 0 | 0.0 | |
| 2026-05-05 20:30:00 | 0.72 | 144 | 7.3 | 8.2 | 0.86 | 1.54 | 1011.5 | 17.3 | 88 | 0 | 0.0 | |
| 2026-05-05 20:35:00 | 0.73 | 143 | 6.9 | 7.6 | 0.86 | 1.54 | 1011.5 | 17.3 | 89 | 0 | 0.0 | |
| 2026-05-05 20:40:00 | 0.74 | 142 | 6.7 | 8.3 | 0.86 | 1.54 | 1011.5 | 17.3 | 89 | 0 | 0.0 | |
| 2026-05-05 20:45:00 | 0.75 | 143 | 7.1 | 8.1 | 0.95 | 1.51 | 1011.4 | 17.4 | 89 | 0 | 0.0 | |
| 2026-05-05 20:50:00 | 0.73 | 146 | 7.6 | 8.4 | 0.95 | 1.51 | 1011.5 | 17.3 | 90 | 0 | 0.0 | |
| 2026-05-05 20:55:00 | 0.74 | 147 | 7.9 | 9.2 | 0.95 | 1.51 | 1011.4 | 17.2 | 90 | 0 | 0.0 | |
| 2026-05-05 21:00:00 | 0.75 | 148 | 8.3 | 9.4 | 1.04 | 1.52 | 1011.5 | 17.3 | 90 | 0 | 0.0 | |
| 2026-05-05 21:05:00 | 0.75 | 149 | 8.0 | 8.7 | 1.04 | 1.52 | 1011.5 | 17.3 | 90 | 0 | 0.0 | |
| 2026-05-05 21:10:00 | 0.75 | 149 | 7.4 | 8.6 | 1.04 | 1.52 | 1011.5 | 17.2 | 90 | 0 | 0.0 | |
| 2026-05-05 21:15:00 | 0.76 | 149 | 7.3 | 8.3 | 1.17 | 1.83 | 1011.5 | 17.3 | 90 | 0 | 0.0 | |
| 2026-05-05 21:20:00 | 0.76 | 150 | 7.0 | 7.8 | 1.17 | 1.83 | 1011.5 | 17.3 | 91 | 0 | 0.0 | |
| 2026-05-05 21:25:00 | 0.75 | 151 | 6.8 | 7.5 | 1.17 | 1.83 | 1011.5 | 17.3 | 91 | 0 | 0.0 | |
| 2026-05-05 21:30:00 | 0.76 | 149 | 6.9 | 7.6 | 0.93 | 1.52 | 1011.4 | 17.3 | 91 | 0 | 0.0 | |
| 2026-05-05 21:35:00 | 0.76 | 143 | 6.8 | 7.6 | 0.93 | 1.52 | 1011.5 | 17.3 | 91 | 0 | 0.0 | |
| 2026-05-05 21:40:00 | 0.75 | 139 | 6.4 | 7.0 | 0.93 | 1.52 | 1011.4 | 17.2 | 91 | 0 | 0.0 | |
| 2026-05-05 21:45:00 | 0.76 | 141 | 6.3 | 7.1 | 1.06 | 1.68 | 1011.4 | 17.2 | 92 | 0 | 0.0 | |
| 2026-05-05 21:50:00 | 0.76 | 143 | 6.3 | 7.1 | 1.06 | 1.68 | 1011.5 | 17.2 | 92 | 0 | 0.0 | |
| 2026-05-05 21:55:00 | 0.75 | 143 | 6.3 | 6.8 | 1.06 | 1.68 | 1011.5 | 17.2 | 92 | 0 | 0.0 | |
| 2026-05-05 22:00:00 | 0.76 | 142 | 5.9 | 6.4 | 1.16 | 1.76 | 1011.5 | 17.2 | 92 | 0 | 0.0 | |
| 2026-05-05 22:05:00 | 0.75 | 141 | 5.7 | 6.3 | 1.16 | 1.76 | 1011.6 | 17.2 | 92 | 0 | 0.0 | |
| 2026-05-05 22:10:00 | 0.75 | 140 | 5.7 | 6.5 | 1.16 | 1.76 | 1011.6 | 17.3 | 92 | 0 | 0.0 | |
| 2026-05-05 22:15:00 | 0.74 | 142 | 5.5 | 6.1 | 1.09 | 1.67 | 1011.6 | 17.2 | 92 | 0 | 0.0 | |
| 2026-05-05 22:20:00 | 0.75 | 143 | 5.2 | 5.6 | 1.09 | 1.67 | 1011.6 | 17.3 | 93 | 0.0 | ||
| 2026-05-05 22:25:00 | 0.75 | 137 | 5.1 | 5.7 | 1.09 | 1.67 | 1011.5 | 17.3 | 93 | 0 | 0.0 | |
| 2026-05-05 22:30:00 | 0.75 | 136 | 5.0 | 5.4 | 1.04 | 1.58 | 1011.5 | 17.2 | 93 | 0 | 0.0 | |
| 2026-05-05 22:35:00 | 0.75 | 133 | 4.7 | 5.0 | 1.04 | 1.58 | 1011.4 | 17.3 | 93 | 0 | 0.0 | |
| 2026-05-05 22:40:00 | 0.74 | 130 | 4.4 | 4.9 | 1.04 | 1.58 | 1011.4 | 17.2 | 93 | 0 | 0.0 | |
| 2026-05-05 22:45:00 | 0.74 | 133 | 4.1 | 4.1 | 0.99 | 1.52 | 1011.4 | 17.3 | 93 | 0 | 0.0 | |
| 2026-05-05 22:50:00 | 0.73 | 130 | 4.0 | 4.5 | 0.99 | 1.52 | 1011.3 | 17.2 | 93 | 0 | 0.0 | |
| 2026-05-05 22:55:00 | 0.74 | 129 | 3.8 | 4.6 | 0.99 | 1.52 | 1011.3 | 17.3 | 93 | 0 | 0.0 | |
| 2026-05-05 23:00:00 | 0.74 | 129 | 3.7 | 4.9 | 0.94 | 1.51 | 1011.3 | 17.3 | 93 | 0 | 0.0 | |
| 2026-05-05 23:05:00 | 0.73 | 124 | 3.5 | 3.7 | 0.94 | 1.51 | 1011.2 | 17.3 | 93 | 0 | 0.0 | |
| 2026-05-05 23:10:00 | 0.73 | 123 | 3.4 | 4.4 | 0.94 | 1.51 | 1011.2 | 17.3 | 93 | 0.0 | ||
| 2026-05-05 23:15:00 | 0.72 | 124 | 3.7 | 4.0 | 1.02 | 1.42 | 1011.3 | 17.3 | 94 | 0 | 0.0 | |
| 2026-05-05 23:20:00 | 0.72 | 134 | 3.4 | 3.8 | 1.02 | 1.42 | 1011.3 | 17.3 | 94 | 0 | 0.0 | |
| 2026-05-05 23:25:00 | 0.71 | 157 | 2.8 | 3.3 | 1.02 | 1.42 | 1011.2 | 17.4 | 94 | 0 | 0.0 | |
| 2026-05-05 23:30:00 | 0.69 | 134 | 2.3 | 2.5 | 0.99 | 1.66 | 1011.1 | 17.4 | 94 | 0 | 0.0 | |
| 2026-05-05 23:35:00 | 0.69 | 121 | 2.0 | 2.3 | 0.99 | 1.66 | 1011.0 | 17.4 | 94 | 0 | 0.0 | |
| 2026-05-05 23:40:00 | 0.68 | 118 | 1.8 | 2.5 | 0.99 | 1.66 | 1011.0 | 17.4 | 94 | 0 | 0.0 | |
| 2026-05-05 23:45:00 | 0.67 | 103 | 1.5 | 1.5 | 0.98 | 1.67 | 1010.9 | 17.3 | 94 | 0 | 0.0 | |
| 2026-05-05 23:50:00 | 0.66 | 92 | 1.3 | 1.5 | 0.98 | 1.67 | 1010.9 | 17.3 | 94 | 0 | 0.0 | |
| 2026-05-05 23:55:00 | 0.64 | 100 | 1.4 | 1.7 | 0.98 | 1.67 | 1010.9 | 17.3 | 94 | 0 | 0.0 | |
| 2026-05-06 00:00:00 | 0.63 | 82 | 1.6 | 1.9 | 0.92 | 1.57 | 1010.8 | 17.3 | 94 | 0.0 | ||
| 2026-05-06 00:05:00 | 0.63 | 43 | 1.7 | 2.9 | 0.92 | 1.57 | 1010.8 | 17.0 | 93 | 1 | 0.0 | |
| 2026-05-06 00:10:00 | 0.62 | 7 | 1.9 | 4.8 | 0.92 | 1.57 | 1010.9 | 16.7 | 93 | 0 | 0.0 | |
| 2026-05-06 00:15:00 | 0.62 | 357 | 2.1 | 3.7 | 1.02 | 1.44 | 1010.9 | 16.8 | 94 | 0 | 0.0 | |
| 2026-05-06 00:20:00 | 0.60 | 358 | 2.1 | 3.8 | 1.02 | 1.44 | 1010.7 | 16.6 | 94 | 0 | 0.0 | |
| 2026-05-06 00:25:00 | 0.59 | 357 | 2.5 | 4.1 | 1.02 | 1.44 | 1010.7 | 16.8 | 94 | 0 | 0.0 | |
| 2026-05-06 00:30:00 | 0.57 | 14 | 2.9 | 4.8 | 1.09 | 1.64 | 1010.6 | 16.7 | 94 | 0 | 0.0 | |
| 2026-05-06 00:35:00 | 0.56 | 23 | 3.2 | 4.8 | 1.09 | 1.64 | 1010.6 | 16.7 | 95 | 0 | 0.0 | |
| 2026-05-06 00:40:00 | 0.55 | 26 | 3.7 | 4.7 | 1.09 | 1.64 | 1010.5 | 16.7 | 95 | 0 | 0.0 | |
| 2026-05-06 00:45:00 | 0.54 | 20 | 4.1 | 5.5 | 0.91 | 1.52 | 1010.6 | 16.3 | 95 | 1 | 0.0 | |
| 2026-05-06 00:50:00 | 0.52 | 21 | 4.4 | 5.8 | 0.91 | 1.52 | 1010.6 | 16.2 | 95 | 1 | 0.0 | |
| 2026-05-06 00:55:00 | 0.51 | 16 | 4.2 | 5.1 | 0.91 | 1.52 | 1010.6 | 16.1 | 95 | 1 | 0.0 | |
| 2026-05-06 01:00:00 | 0.49 | 21 | 4.3 | 5.5 | 1.06 | 1.73 | 1010.5 | 16.0 | 95 | 1 | 0.0 | |
| 2026-05-06 01:05:00 | 0.47 | 19 | 4.9 | 6.0 | 1.06 | 1.73 | 1010.3 | 15.8 | 95 | 1 | 0.0 | |
| 2026-05-06 01:10:00 | 0.47 | 18 | 5.0 | 6.3 | 1.06 | 1.73 | 1010.3 | 15.7 | 95 | 0 | 0.0 | |
| 2026-05-06 01:15:00 | 0.45 | 20 | 5.1 | 6.3 | 0.93 | 1.58 | 1010.4 | 15.9 | 95 | 0 | 0.0 | |
| 2026-05-06 01:20:00 | 0.44 | 23 | 5.3 | 6.2 | 0.93 | 1.58 | 1010.5 | 15.8 | 96 | 0 | 0.0 | |
| 2026-05-06 01:25:00 | 0.42 | 24 | 5.5 | 6.1 | 0.93 | 1.58 | 1010.4 | 15.8 | 96 | 0 | 0.0 | |
| 2026-05-06 01:30:00 | 0.40 | 25 | 5.5 | 6.0 | 0.91 | 1.52 | 1010.4 | 15.8 | 96 | 0 | 0.0 | |
| 2026-05-06 01:35:00 | 0.39 | 22 | 5.1 | 5.8 | 0.91 | 1.52 | 1010.5 | 15.7 | 96 | 0 | 0.0 | |
| 2026-05-06 01:40:00 | 0.37 | 23 | 4.9 | 6.0 | 0.91 | 1.52 | 1010.5 | 15.6 | 96 | 0 | 0.0 | |
| 2026-05-06 01:45:00 | 0.36 | 23 | 5.4 | 6.4 | 0.96 | 1.45 | 1010.3 | 15.6 | 96 | 0 | 0.0 | |
| 2026-05-06 01:50:00 | 0.36 | 24 | 5.5 | 6.3 | 0.96 | 1.45 | 1010.4 | 15.6 | 96 | 0 | 0.0 | |
| 2026-05-06 01:55:00 | 0.35 | 23 | 5.3 | 6.2 | 0.96 | 1.45 | 1010.3 | 15.6 | 96 | 0 | 0.0 | |
| 2026-05-06 02:00:00 | 0.33 | 21 | 5.1 | 6.1 | 1.01 | 1.66 | 1010.3 | 15.5 | 96 | 0 | 0.0 | |
| 2026-05-06 02:05:00 | 0.31 | 20 | 5.0 | 6.0 | 1.01 | 1.66 | 1010.3 | 15.3 | 96 | 1 | 0.0 | |
| 2026-05-06 02:10:00 | 0.30 | 21 | 5.0 | 6.1 | 1.01 | 1.66 | 1010.3 | 15.3 | 96 | 0 | 0.0 | |
| 2026-05-06 02:15:00 | 0.29 | 21 | 5.2 | 6.3 | 0.92 | 1.62 | 1010.2 | 15.5 | 96 | 0 | 0.0 | |
| 2026-05-06 02:20:00 | 0.27 | 21 | 5.4 | 6.4 | 0.92 | 1.62 | 1010.1 | 15.4 | 96 | 0 | 0.0 | |
| 2026-05-06 02:25:00 | 0.25 | 23 | 5.9 | 6.9 | 0.92 | 1.62 | 1010.1 | 15.4 | 96 | 0 | 0.0 | |
| 2026-05-06 02:30:00 | 0.24 | 21 | 6.2 | 6.8 | 1.00 | 1.40 | 1010.2 | 15.3 | 96 | 0 | 0.0 | |
| 2026-05-06 02:35:00 | 0.23 | 21 | 6.0 | 6.5 | 1.00 | 1.40 | 1010.2 | 15.5 | 96 | 0.0 | ||
| 2026-05-06 02:40:00 | 0.22 | 23 | 5.9 | 6.7 | 1.00 | 1.40 | 1010.2 | 15.5 | 96 | 0 | 0.0 | |
| 2026-05-06 02:45:00 | 0.20 | 24 | 5.6 | 6.4 | 0.87 | 1.29 | 1010.2 | 15.6 | 96 | 0 | 0.0 | |
| 2026-05-06 02:50:00 | 0.18 | 23 | 5.2 | 6.1 | 0.87 | 1.29 | 1010.2 | 15.6 | 96 | 0 | 0.0 | |
| 2026-05-06 02:55:00 | 0.16 | 25 | 5.5 | 6.5 | 0.87 | 1.29 | 1010.2 | 15.5 | 96 | 0 | 0.0 | |
| 2026-05-06 03:00:00 | 0.15 | 25 | 6.0 | 6.6 | 0.93 | 1.47 | 1010.1 | 15.5 | 96 | 0 | 0.0 | |
| 2026-05-06 03:05:00 | 0.13 | 29 | 6.0 | 6.5 | 0.93 | 1.47 | 1010.2 | 15.6 | 96 | 0 | 0.0 | |
| 2026-05-06 03:10:00 | 0.11 | 32 | 6.0 | 6.4 | 0.93 | 1.47 | 1010.1 | 15.7 | 96 | 0 | 0.0 | |
| 2026-05-06 03:15:00 | 0.10 | 28 | 6.0 | 6.7 | 0.96 | 1.81 | 1010.0 | 15.7 | 96 | 0 | 0.0 | |
| 2026-05-06 03:20:00 | 0.10 | 26 | 5.9 | 6.4 | 0.96 | 1.81 | 1009.9 | 15.7 | 96 | 0 | 0.0 | |
| 2026-05-06 03:25:00 | 0.08 | 27 | 5.9 | 6.8 | 0.96 | 1.81 | 1009.9 | 15.6 | 96 | 1 | 0.0 | |
| 2026-05-06 03:30:00 | 0.06 | 26 | 5.8 | 6.4 | 0.92 | 1.83 | 1009.9 | 15.6 | 96 | 0 | 0.0 | |
| 2026-05-06 03:35:00 | 0.05 | 25 | 5.8 | 6.6 | 0.92 | 1.83 | 1009.9 | 15.7 | 96 | 0 | 0.0 | |
| 2026-05-06 03:40:00 | 0.03 | 26 | 5.8 | 6.5 | 0.92 | 1.83 | 1009.9 | 15.7 | 96 | 0 | 0.0 | |
| 2026-05-06 03:45:00 | 0.03 | 23 | 5.6 | 6.5 | 0.90 | 1.47 | 1009.8 | 15.6 | 96 | 0 | 0.0 | |
| 2026-05-06 03:50:00 | 0.01 | 24 | 5.5 | 6.1 | 0.90 | 1.47 | 1009.7 | 15.6 | 96 | 0 | 0.0 | |
| 2026-05-06 03:55:00 | 0.00 | 24 | 5.4 | 5.9 | 0.90 | 1.47 | 1009.6 | 15.6 | 96 | 0 | 0.0 | |
| 2026-05-06 04:00:00 | 0.00 | 21 | 4.9 | 6.0 | 0.97 | 1.72 | 1009.7 | 15.7 | 96 | 0 | 0.0 | |
| 2026-05-06 04:05:00 | -0.02 | 21 | 4.4 | 5.2 | 0.97 | 1.72 | 1009.8 | 15.7 | 96 | 0 | 0.0 | |
| 2026-05-06 04:10:00 | -0.03 | 27 | 4.5 | 5.3 | 0.97 | 1.72 | 1009.8 | 15.7 | 97 | 0 | 0.0 | |
| 2026-05-06 04:15:00 | -0.04 | 25 | 4.5 | 4.9 | 0.83 | 1.36 | 1009.8 | 15.7 | 96 | 0 | 0.0 | |
| 2026-05-06 04:20:00 | -0.05 | 17 | 3.8 | 4.8 | 0.83 | 1.36 | 1009.8 | 15.7 | 97 | 0 | 0.0 | |
| 2026-05-06 04:25:00 | -0.06 | 20 | 3.4 | 4.4 | 0.83 | 1.36 | 1009.8 | 15.6 | 97 | 0 | 0.0 | |
| 2026-05-06 04:30:00 | -0.07 | 18 | 3.3 | 4.3 | 0.90 | 1.47 | 1009.8 | 15.6 | 97 | 0 | 0.4 | |
| 2026-05-06 04:35:00 | -0.08 | 18 | 3.1 | 4.0 | 0.90 | 1.47 | 1009.8 | 15.7 | 97 | 0 | 0.4 | |
| 2026-05-06 04:40:00 | -0.08 | 18 | 3.0 | 4.0 | 0.90 | 1.47 | 1009.7 | 15.7 | 97 | 0 | 0.6 | |
| 2026-05-06 04:45:00 | -0.09 | 22 | 3.4 | 4.6 | 0.87 | 1.29 | 1009.5 | 15.6 | 97 | 1 | 0.4 | |
| 2026-05-06 04:50:00 | -0.10 | 19 | 4.0 | 5.2 | 0.87 | 1.29 | 1009.3 | 15.5 | 97 | 1 | 0.4 | |
| 2026-05-06 04:55:00 | -0.10 | 25 | 4.7 | 5.8 | 0.87 | 1.29 | 1009.4 | 15.5 | 97 | 1 | 0.2 | |
| 2026-05-06 05:00:00 | -0.11 | 31 | 5.4 | 5.9 | 0.83 | 1.69 | 1009.5 | 15.6 | 97 | 2 | 0.2 | |
| 2026-05-06 05:05:00 | -0.11 | 37 | 5.3 | 5.7 | 0.83 | 1.69 | 1009.5 | 15.6 | 97 | 5 | 0.0 | |
| 2026-05-06 05:10:00 | -0.12 | 37 | 5.1 | 5.7 | 0.83 | 1.69 | 1009.6 | 15.5 | 97 | 11 | 0.2 | |
| 2026-05-06 05:15:00 | -0.12 | 33 | 5.0 | 5.6 | 0.82 | 1.42 | 1009.7 | 15.6 | 97 | 6 | 0.0 | |
| 2026-05-06 05:20:00 | -0.13 | 26 | 4.9 | 5.4 | 0.82 | 1.42 | 1009.7 | 15.5 | 97 | 6 | 0.0 | |
| 2026-05-06 05:25:00 | -0.14 | 30 | 4.8 | 5.3 | 0.82 | 1.42 | 1009.7 | 15.6 | 98 | 6 | 0.0 | |
| 2026-05-06 05:30:00 | -0.14 | 32 | 4.5 | 4.7 | 0.92 | 1.46 | 1009.8 | 15.5 | 98 | 7 | 0.0 | |
| 2026-05-06 05:35:00 | -0.14 | 32 | 3.9 | 4.0 | 0.92 | 1.46 | 1009.8 | 15.6 | 98 | 5 | 0.0 | |
| 2026-05-06 05:40:00 | -0.14 | 37 | 3.4 | 3.6 | 0.92 | 1.46 | 1009.8 | 15.6 | 98 | 6 | 0.0 | |
| 2026-05-06 05:45:00 | -0.15 | 38 | 3.4 | 4.0 | 0.81 | 1.29 | 1009.8 | 15.8 | 98 | 5 | 0.0 | |
| 2026-05-06 05:50:00 | -0.15 | 46 | 3.6 | 4.1 | 0.81 | 1.29 | 1009.8 | 15.9 | 98 | 6 | 0.0 | |
| 2026-05-06 05:55:00 | -0.15 | 52 | 3.7 | 4.2 | 0.81 | 1.29 | 1009.9 | 16.0 | 98 | 7 | 0.2 | |
| 2026-05-06 06:00:00 | -0.14 | 56 | 3.2 | 3.3 | 0.79 | 1.31 | 1010.0 | 16.0 | 98 | 8 | 0.0 | |
| 2026-05-06 06:05:00 | -0.15 | 64 | 2.4 | 2.3 | 0.79 | 1.31 | 1010.1 | 15.9 | 98 | 8 | 0.2 | |
| 2026-05-06 06:10:00 | -0.14 | 88 | 1.8 | 1.8 | 0.79 | 1.31 | 1010.2 | 16.0 | 98 | 4 | 0.2 | |
| 2026-05-06 06:15:00 | -0.15 | 102 | 1.5 | 2.1 | 0.78 | 1.42 | 1010.0 | 16.0 | 98 | 8 | 0.0 | |
| 2026-05-06 06:20:00 | -0.14 | 94 | 1.9 | 2.6 | 0.78 | 1.42 | 1009.9 | 16.0 | 98 | 9 | 0.2 | |
| 2026-05-06 06:25:00 | -0.14 | 105 | 2.2 | 2.8 | 0.78 | 1.42 | 1010.0 | 16.0 | 98 | 9 | 0.2 | |
| 2026-05-06 06:30:00 | -0.14 | 135 | 2.4 | 2.9 | 0.78 | 1.46 | 1009.9 | 16.0 | 98 | 10 | 0.2 | |
| 2026-05-06 06:35:00 | -0.12 | 114 | 2.0 | 2.0 | 0.78 | 1.46 | 1009.7 | 15.9 | 98 | 11 | 0.2 | |
| 2026-05-06 06:40:00 | -0.10 | 108 | 1.5 | 1.7 | 0.78 | 1.46 | 1009.8 | 16.1 | 98 | 11 | 0.4 | |
| 2026-05-06 06:45:00 | -0.10 | 155 | 1.6 | 2.6 | 0.74 | 1.23 | 1010.0 | 16.0 | 98 | 13 | 0.4 | |
| 2026-05-06 06:50:00 | -0.10 | 157 | 2.2 | 2.8 | 0.74 | 1.23 | 1009.9 | 16.1 | 98 | 16 | 0.4 | |
| 2026-05-06 06:55:00 | -0.10 | 152 | 2.8 | 4.0 | 0.74 | 1.23 | 1009.8 | 16.1 | 98 | 18 | 0.2 | |
| 2026-05-06 07:00:00 | -0.09 | 142 | 3.6 | 4.9 | 0.70 | 1.11 | 1009.7 | 16.1 | 98 | 18 | 0.2 | |
| 2026-05-06 07:05:00 | -0.07 | 142 | 4.3 | 5.9 | 0.70 | 1.11 | 1009.8 | 16.1 | 98 | 26 | 0.0 | |
| 2026-05-06 07:10:00 | -0.08 | 157 | 4.9 | 5.8 | 0.70 | 1.11 | 1009.8 | 15.5 | 98 | 40 | 0.2 | |
| 2026-05-06 07:15:00 | -0.06 | 189 | 4.9 | 5.5 | 0.67 | 0.98 | 1009.9 | 15.3 | 97 | 43 | 0.0 | |
| 2026-05-06 07:20:00 | -0.05 | 185 | 4.1 | 4.5 | 0.67 | 0.98 | 1009.7 | 16.1 | 98 | 35 | 0.0 | |
| 2026-05-06 07:25:00 | -0.04 | 190 | 3.3 | 3.8 | 0.67 | 0.98 | 1009.7 | 15.7 | 96 | 46 | 0.2 | |
| 2026-05-06 07:30:00 | -0.03 | 192 | 3.3 | 3.9 | 0.73 | 1.17 | 1009.7 | 15.9 | 94 | 51 | 0.0 | |
| 2026-05-06 07:35:00 | -0.03 | 191 | 3.5 | 4.4 | 0.73 | 1.17 | 1009.7 | 15.8 | 93 | 54 | 0.0 | |
| 2026-05-06 07:40:00 | -0.01 | 179 | 3.6 | 4.3 | 0.73 | 1.17 | 1009.9 | 15.9 | 92 | 69 | 0.0 | |
| 2026-05-06 07:45:00 | -0.02 | 193 | 3.9 | 4.8 | 0.71 | 1.16 | 1009.9 | 15.9 | 91 | 96 | 0.0 | |
| 2026-05-06 07:50:00 | -0.02 | 177 | 3.8 | 4.0 | 0.71 | 1.16 | 1009.8 | 15.9 | 90 | 104 | 0.0 | |
| 2026-05-06 07:55:00 | 0.01 | 168 | 3.6 | 4.1 | 0.71 | 1.16 | 1009.8 | 16.0 | 90 | 104 | 0.0 | |
| 2026-05-06 08:00:00 | 0.01 | 158 | 3.6 | 3.9 | 0.68 | 1.13 | 1009.5 | 16.0 | 90 | 135 | 0.0 | |
| 2026-05-06 08:05:00 | 0.04 | 146 | 3.4 | 3.7 | 0.68 | 1.13 | 1009.5 | 16.1 | 90 | 151 | 0.0 | |
| 2026-05-06 08:10:00 | 0.04 | 132 | 3.2 | 3.7 | 0.68 | 1.13 | 1009.4 | 16.0 | 90 | 153 | 0.0 | |
| 2026-05-06 08:15:00 | 0.05 | 138 | 3.2 | 3.5 | 0.70 | 1.13 | 1009.5 | 16.2 | 91 | 156 | 0.0 | |
| 2026-05-06 08:20:00 | 0.04 | 142 | 3.3 | 4.0 | 0.70 | 1.13 | 1009.6 | 16.2 | 90 | 174 | 0.0 | |
| 2026-05-06 08:25:00 | 0.06 | 147 | 3.6 | 4.4 | 0.70 | 1.13 | 1009.7 | 16.2 | 90 | 168 | 0.0 | |
| 2026-05-06 08:30:00 | 0.08 | 149 | 3.9 | 4.5 | 0.64 | 1.11 | 1009.7 | 16.4 | 90 | 170 | 0.0 | |
| 2026-05-06 08:35:00 | 0.09 | 148 | 4.1 | 4.6 | 0.64 | 1.11 | 1009.7 | 16.0 | 90 | 183 | 0.0 | |
| 2026-05-06 08:40:00 | 0.09 | 148 | 3.8 | 4.3 | 0.64 | 1.11 | 1009.8 | 16.0 | 90 | 158 | 0.0 | |
| 2026-05-06 08:45:00 | 0.11 | 157 | 3.3 | 3.3 | 0.63 | 1.07 | 1009.8 | 16.3 | 89 | 139 | 0.0 | |
| 2026-05-06 08:50:00 | 0.12 | 158 | 2.8 | 3.0 | 0.63 | 1.07 | 1009.8 | 16.3 | 90 | 118 | 0.0 | |
| 2026-05-06 08:55:00 | 0.13 | 159 | 2.6 | 3.0 | 0.63 | 1.07 | 1009.7 | 16.2 | 91 | 112 | 0.0 | |
| 2026-05-06 09:00:00 | 0.14 | 157 | 2.7 | 3.5 | 0.65 | 1.08 | 1009.7 | 16.2 | 91 | 166 | 0.0 | |
| 2026-05-06 09:05:00 | 0.17 | 148 | 2.9 | 3.4 | 0.65 | 1.08 | 1009.7 | 16.2 | 92 | 172 | 0.2 | |
| 2026-05-06 09:10:00 | 0.18 | 144 | 3.1 | 3.7 | 0.65 | 1.08 | 1009.8 | 16.1 | 92 | 157 | 0.0 | |
| 2026-05-06 09:15:00 | 0.18 | 140 | 3.4 | 4.0 | 0.63 | 1.01 | 1009.7 | 16.1 | 93 | 245 | 0.0 | |
| 2026-05-06 09:20:00 | 0.19 | 124 | 3.4 | 3.7 | 0.63 | 1.01 | 1009.6 | 16.1 | 93 | 266 | 0.0 | |
| 2026-05-06 09:25:00 | 0.22 | 122 | 3.1 | 3.5 | 0.63 | 1.01 | 1009.6 | 16.0 | 93 | 202 | 0.0 | |
| 2026-05-06 09:30:00 | 0.23 | 118 | 2.8 | 2.9 | 0.60 | 0.98 | 1009.6 | 16.2 | 93 | 154 | 0.0 | |
| 2026-05-06 09:35:00 | 0.24 | 127 | 2.7 | 3.5 | 0.60 | 0.98 | 1009.8 | 16.0 | 92 | 130 | 0.0 | |
| 2026-05-06 09:40:00 | 0.25 | 137 | 3.0 | 3.7 | 0.60 | 0.98 | 1009.9 | 16.1 | 92 | 100 | 0.0 | |
| 2026-05-06 09:45:00 | 0.26 | 138 | 3.1 | 3.3 | 0.63 | 1.08 | 1009.9 | 16.1 | 92 | 93 | 0.0 | |
| 2026-05-06 09:50:00 | 0.27 | 130 | 2.9 | 3.3 | 0.63 | 1.08 | 1009.9 | 16.0 | 92 | 113 | 0.0 | |
| 2026-05-06 09:55:00 | 0.28 | 132 | 3.1 | 3.8 | 0.63 | 1.08 | 1010.0 | 16.0 | 92 | 83 | 0.2 | |
| 2026-05-06 10:00:00 | 0.29 | 123 | 3.7 | 4.5 | 0.55 | 1.05 | 1009.9 | 15.8 | 92 | 102 | 0.2 | |
| 2026-05-06 10:05:00 | 0.31 | 129 | 3.8 | 4.1 | 0.55 | 1.05 | 1010.1 | 15.9 | 93 | 115 | 0.2 | |
| 2026-05-06 10:10:00 | 0.32 | 146 | 3.3 | 3.5 | 0.55 | 1.05 | 1010.3 | 15.9 | 93 | 93 | 0.0 | |
| 2026-05-06 10:15:00 | 0.33 | 142 | 3.1 | 3.6 | 0.55 | 0.93 | 1010.3 | 15.8 | 93 | 111 | 0.2 | |
| 2026-05-06 10:20:00 | 0.35 | 139 | 3.1 | 3.6 | 0.55 | 0.93 | 1010.2 | 15.8 | 94 | 133 | 0.2 | |
| 2026-05-06 10:25:00 | 0.35 | 141 | 3.0 | 3.2 | 0.55 | 0.93 | 1010.2 | 15.9 | 94 | 174 | 0.0 | |
| 2026-05-06 10:30:00 | 0.37 | 145 | 2.8 | 3.3 | 0.58 | 1.31 | 1010.3 | 15.8 | 94 | 110 | 0.0 | |
| 2026-05-06 10:35:00 | 0.39 | 155 | 3.2 | 4.4 | 0.58 | 1.31 | 1010.4 | 15.9 | 94 | 62 | 0.0 | |
| 2026-05-06 10:40:00 | 0.41 | 158 | 3.9 | 4.7 | 0.58 | 1.31 | 1010.4 | 16.1 | 94 | 86 | 0.2 | |
| 2026-05-06 10:45:00 | 0.41 | 157 | 4.1 | 4.8 | 0.52 | 0.96 | 1010.3 | 16.0 | 93 | 160 | 0.2 | |
| 2026-05-06 10:50:00 | 0.39 | 157 | 4.0 | 4.4 | 0.52 | 0.96 | 1010.2 | 16.1 | 93 | 316 | 0.4 | |
| 2026-05-06 10:55:00 | 0.41 | 168 | 3.9 | 4.6 | 0.52 | 0.96 | 1010.3 | 16.1 | 93 | 276 | 0.0 | |
| 2026-05-06 11:00:00 | 0.41 | 169 | 3.9 | 4.3 | 0.45 | 0.65 | 1010.3 | 16.1 | 93 | 215 | 0.0 | |
| 2026-05-06 11:05:00 | 0.41 | 168 | 3.6 | 3.7 | 0.45 | 0.65 | 1010.2 | 16.2 | 93 | 325 | 0.0 | |
| 2026-05-06 11:10:00 | 0.43 | 172 | 3.2 | 3.8 | 0.45 | 0.65 | 1010.2 | 16.2 | 93 | 299 | 0.0 | |
| 2026-05-06 11:15:00 | 0.44 | 171 | 2.9 | 3.0 | 0.50 | 0.86 | 1010.2 | 16.2 | 93 | 224 | 0.0 | |
| 2026-05-06 11:20:00 | 0.45 | 172 | 2.7 | 3.3 | 0.50 | 0.86 | 1010.1 | 16.2 | 93 | 136 | 0.0 | |
| 2026-05-06 11:25:00 | 0.45 | 175 | 2.3 | 2.7 | 0.50 | 0.86 | 1010.0 | 16.3 | 93 | 181 | 0.0 | |
| 2026-05-06 11:30:00 | 0.46 | 159 | 1.8 | 2.2 | 0.58 | 1.24 | 1009.9 | 16.2 | 93 | 217 | 0.0 | |
| 2026-05-06 11:35:00 | 0.48 | 155 | 1.8 | 2.5 | 0.58 | 1.24 | 1009.9 | 16.5 | 92 | 570 | 0.0 | |
| 2026-05-06 11:40:00 | 0.48 | 152 | 1.9 | 2.3 | 0.58 | 1.24 | 1009.9 | 16.4 | 92 | 272 | 0.0 | |
| 2026-05-06 11:45:00 | 0.48 | 155 | 2.0 | 2.5 | 0.54 | 0.94 | 1009.9 | 16.4 | 92 | 185 | 0.0 | |
| 2026-05-06 11:50:00 | 0.49 | 144 | 2.4 | 3.1 | 0.54 | 0.94 | 1009.9 | 16.4 | 92 | 197 | 0.0 | |
| 2026-05-06 11:55:00 | 0.51 | 146 | 2.7 | 3.2 | 0.54 | 0.94 | 1009.9 | 16.6 | 92 | 161 | 0.0 | |
| 2026-05-06 12:00:00 | 0.51 | 155 | 2.8 | 3.2 | 0.52 | 0.81 | 1009.9 | 16.5 | 92 | 129 | 0.0 | |
| 2026-05-06 12:05:00 | 0.52 | 151 | 3.0 | 4.0 | 0.52 | 0.81 | 1009.9 | 16.4 | 92 | 134 | 0.0 | |
| 2026-05-06 12:10:00 | 0.54 | 146 | 3.5 | 4.5 | 0.52 | 0.81 | 1009.9 | 16.3 | 92 | 166 | 0.2 | |
| 2026-05-06 12:15:00 | 0.54 | 137 | 4.2 | 4.8 | 0.51 | 0.75 | 1009.7 | 16.1 | 92 | 165 | 0.0 | |
| 2026-05-06 12:20:00 | 0.55 | 132 | 4.5 | 5.0 | 0.51 | 0.75 | 1009.7 | 16.2 | 93 | 217 | 0.2 | |
| 2026-05-06 12:25:00 | 0.56 | 129 | 5.0 | 6.7 | 0.51 | 0.75 | 1009.7 | 16.2 | 93 | 196 | 0.2 | |
| 2026-05-06 12:30:00 | 0.58 | 144 | 5.7 | 7.5 | 0.56 | 0.86 | 1009.7 | 16.4 | 93 | 156 | 0.0 | |
| 2026-05-06 12:35:00 | 0.58 | 148 | 5.7 | 6.0 | 0.56 | 0.86 | 1009.6 | 16.5 | 93 | 143 | 0.2 | |
| 2026-05-06 12:40:00 | 0.59 | 150 | 5.7 | 7.3 | 0.56 | 0.86 | 1009.6 | 16.6 | 91 | 126 | 0.2 | |
| 2026-05-06 12:45:00 | 0.59 | 147 | 6.1 | 7.1 | 0.55 | 1.18 | 1009.6 | 16.7 | 92 | 103 | 0.2 | |
| 2026-05-06 12:50:00 | 0.59 | 151 | 6.4 | 7.4 | 0.55 | 1.18 | 1009.6 | 16.7 | 92 | 94 | 0.6 | |
| 2026-05-06 12:55:00 | 0.60 | 156 | 6.5 | 8.1 | 0.55 | 1.18 | 1009.5 | 16.8 | 91 | 89 | 1.0 | |
| 2026-05-06 13:00:00 | 0.61 | 140 | 6.1 | 6.8 | 0.54 | 0.84 | 1009.3 | 17.0 | 91 | 137 | 0.2 | |
| 2026-05-06 13:05:00 | 0.62 | 136 | 6.1 | 7.3 | 0.54 | 0.84 | 1009.2 | 17.2 | 90 | 311 | 0.0 | |
| 2026-05-06 13:10:00 | 0.63 | 134 | 6.5 | 7.0 | 0.54 | 0.84 | 1009.2 | 17.3 | 90 | 444 | 0.0 | |
| 2026-05-06 13:15:00 | 0.64 | 132 | 6.5 | 6.9 | 0.54 | 1.12 | 1009.2 | 17.3 | 90 | 363 | 0.0 | |
| 2026-05-06 13:20:00 | 0.64 | 135 | 6.5 | 7.2 | 0.54 | 1.12 | 1009.2 | 17.3 | 90 | 294 | 0.0 | |
| 2026-05-06 13:25:00 | 0.63 | 137 | 6.5 | 7.4 | 0.54 | 1.12 | 1009.2 | 17.3 | 90 | 446 | 0.0 | |
| 2026-05-06 13:30:00 | 0.64 | 132 | 6.4 | 7.2 | 0.59 | 1.08 | 1009.1 | 17.3 | 90 | 448 | 0.0 | |
| 2026-05-06 13:35:00 | 0.64 | 129 | 6.2 | 7.7 | 0.59 | 1.08 | 1009.1 | 17.4 | 90 | 578 | 0.0 | |
| 2026-05-06 13:40:00 | 0.65 | 132 | 5.8 | 6.1 | 0.59 | 1.08 | 1009.1 | 17.4 | 90 | 392 | 0.0 | |
| 2026-05-06 13:45:00 | 0.66 | 125 | 5.5 | 6.0 | 0.60 | 1.28 | 1008.9 | 17.3 | 90 | 389 | 0.0 |